CANAVERAL NM East of Cape Canaveral, FL (41009)

Conditions for Wednesday

Daily
Weekly
Monthly
Marine Data Graph

Current Weather/Wave Observations

Air Temperature: 69° F
Humidity: 38
Wind direction (W Dir): NNW (335 - 344 Degrees)
Wind Speed (W Spd): 3.9 kts (4.5 mph)
Wind Gust (W Spd): 5.8 kts (6.7 mph)
Atmospheric Pressure (AP): 30.14 in

Updated: 8:20 PM EST on December 17, 2014

Marine & Boating Location Search

Enter a coastal zip code for marine weather.

Current Wave Detail Observations

Water Depth: 135 ft
Wave Height: 1.77 ft
Spectral Peak Period: 10.8 sec
Average Wave Period: 5.5 sec
Sampling Interval: 0.6 sec
Wave Record: 2400 sec

Updated: 8:00 PM EST on December 17, 2014

General Information

Location: 28.519 North -80.166 West
Buoy Type: 6-meter NOMAD buoy
Buoy Hull: 3D33
Payload: ARES payload
Owned by: NDBC
Windspeed: Measured by obtained from anemometer
Sea Surface: Measured by Intake
Note: Station 41009 went adrift on 06/25/2012 and the last report from its moored position was at 21Z. It has been retrieved as of 12Z, 6/29/12. This buoy will be restored to service when it can be worked into the schedule. When the service date is known, it will be posted in the  maintenance report. 
Going to Oculina Bank? Please review Oculina fishing regulations

Right whales are active off FL. Speed restrictions of 10 knots apply to vessels 65 feet or greater in specific areas and times along the U.S. East Coast.  It is illegal to approach right whales within 500 yards.  To learn more about right whales and rules protecting them, go to: http://www.nmfs.noaa.gov/pr/shipstrike/

Weather and Wave Data

Time Temp Humidity Wind Dominant Wave Wind Wave Wave Swell Pressure
  Air
(°F)
Water
(°F)
  Dir Speed
(kts)
Speed
(mph)
Period
(sec)
Height
(ft)
Range
(ft)
Period
(sec)
Height
(ft)
Range
(ft)
Period
(sec)
Height
(ft)
Range
(ft)
Atmo.
(in)
Tend.
(in)
20:20 71 76 29 SW 13.6 15.7 - - - - - - 30.16 -
20:50 71 76 29 SW 13.6 15.7 11 1.97 exactly 2.0 3 1.64 0.82 - 2.46 11 1.64 0.82 - 2.46 30.16 +0.02
21:20 71 76 33 SW 13.6 15.7 - - - - - - 30.17 -
21:50 71 76 36 WSW 13.6 15.7 11 1.64 exactly 1.6 2 1.64 0.82 - 2.46 11 1.64 0.82 - 2.46 30.17 +0.01
22:20 71 76 38 WSW 13.6 15.7 - - - - - - 30.18 -
22:50 69 76 45 WSW 13.6 15.7 11 1.97 exactly 2.0 3 1.64 0.82 - 2.46 11 1.64 0.82 - 2.46 30.17 +0.02
23:20 69 76 51 WSW 15.6 17.9 - - - - - - 30.17 -
23:50 68 76 55 WSW 13.6 15.7 11 1.97 exactly 2.0 3 1.64 0.82 - 2.46 11 1.64 0.82 - 2.46 30.16 -
00:20 68 76 58 WSW 13.6 15.7 - - - - - - 30.16 -
01:20 67 76 63 WSW 13.6 15.7 - - - - - - 30.14 -
01:50 67 76 63 WSW 15.6 17.9 11 1.97 exactly 2.0 3 1.64 0.82 - 2.46 11 1.64 0.82 - 2.46 30.14 -0.03
02:20 67 76 64 WSW 15.6 17.9 - - - - - - 30.14 -
02:50 67 76 66 WSW 15.6 17.9 12 1.97 exactly 2.0 3 1.64 0.82 - 2.46 12 1.64 0.82 - 2.46 30.14 -0.03
03:20 66 76 70 WSW 15.6 17.9 - - - - - - 30.14 -
03:50 66 76 67 West 15.6 17.9 11 1.97 exactly 2.0 3 1.64 0.82 - 2.46 11 1.64 0.82 - 2.46 30.13 -
04:20 66 76 69 West 13.6 15.7 - - - - - - 30.14 -
04:50 66 76 69 West 15.6 17.9 11 1.97 exactly 2.0 3 1.64 0.82 - 2.46 11 1.64 0.82 - 2.46 30.14 -
05:20 66 76 70 West 17.5 20.1 - - - - - - 30.14 -
05:50 65 76 73 West 15.6 17.9 11 1.97 exactly 2.0 3 1.64 0.82 - 2.46 11 1.64 0.82 - 2.46 30.15 +0.01
06:20 65 76 73 West 13.6 15.7 - - - - - - 30.15 -
06:50 65 76 69 WNW 11.7 13.4 11 2.30 exactly 2.3 3 1.64 0.82 - 2.46 11 1.64 0.82 - 2.46 30.15 +0.02
07:20 65 76 66 West 11.7 13.4 - - - - - - 30.16 -
07:50 65 75 65 West 9.7 11.2 11 2.30 exactly 2.3 3 1.64 0.82 - 2.46 11 1.64 0.82 - 2.46 30.16 +0.03
08:20 65 75 65 WNW 9.7 11.2 - - - - - - 30.17 -
08:50 64 75 69 WNW 11.7 13.4 11 1.97 exactly 2.0 4 1.64 0.82 - 2.46 11 1.64 0.82 - 2.46 30.18 +0.03
09:20 64 75 70 WNW 11.7 13.4 - - - - - - 30.19 -
09:50 64 75 70 WNW 7.8 8.9 11 1.97 exactly 2.0 3 1.64 0.82 - 2.46 11 1.64 0.82 - 2.46 30.20 +0.05
10:20 64 75 68 WNW 7.8 8.9 - - - - - - 30.20 -
10:50 65 75 68 WNW 9.7 11.2 4 1.97 exactly 2.0 4 1.64 0.82 - 2.46 11 1.64 0.82 - 2.46 30.21 +0.04
11:20 66 75 62 NW 7.8 8.9 - - - - - - 30.19 -
11:50 66 76 60 WNW 9.7 11.2 11 1.97 exactly 2.0 4 1.64 0.82 - 2.46 11 1.64 0.82 - 2.46 30.18 -
12:20 66 76 60 WNW 7.8 8.9 - - - - - - 30.17 -
12:50 66 76 65 West 9.7 11.2 11 1.97 exactly 2.0 4 1.64 0.82 - 2.46 11 1.64 0.82 - 2.46 30.15 -0.05
13:20 65 76 71 West 9.7 11.2 - - - - - - 30.14 -
13:50 65 76 66 WNW 7.8 8.9 11 1.64 exactly 1.6 4 1.64 0.82 - 2.46 11 1.64 0.82 - 2.46 30.13 -0.08
14:20 66 76 50 WNW 5.8 6.7 - - - - - - 30.12 -
14:50 67 76 44 NW 3.9 4.5 10 1.64 exactly 1.6 4 1.64 0.82 - 2.46 10 1.64 0.82 - 2.46 30.10 -0.08
15:20 67 76 43 NNW 3.9 4.5 - - - - - - 30.10 -
15:50 67 76 42 NNW 3.9 4.5 9 1.64 exactly 1.6 4 1.64 0.82 - 2.46 9 1.64 0.82 - 2.46 30.10 -0.05
16:20 68 76 42 NNW 1.9 2.2 - - - - - - 30.10 -
16:50 68 76 43 NNW 3.9 4.5 10 1.64 exactly 1.6 4 1.64 0.82 - 2.46 10 1.64 0.82 - 2.46 30.11 -0.02
17:20 68 76 44 NNW 3.9 4.5 - - - - - - 30.12 -
17:50 68 76 43 NNW 5.8 6.7 10 1.64 exactly 1.6 - - - 10 1.64 0.82 - 2.46 30.12 +0.02
18:20 68 76 44 NNW 5.8 6.7 - - - - - - 30.12 -
18:50 69 76 42 North 3.9 4.5 11 1.64 exactly 1.6 - - - 11 1.64 0.82 - 2.46 30.12 +0.02
19:20 69 76 39 NNW 3.9 4.5 - - - - - - 30.13 -
19:50 69 76 39 NW 3.9 4.5 11 1.64 exactly 1.6 - - - 11 1.64 0.82 - 2.46 30.14 +0.04
20:20 69 76 38 NNW 3.9 4.5 - - - - - - 30.14 -

Detailed Wave Spectra

Time Water Depth Wave Height Spectral Peak Period Average Wave Period Sampling Interval Wave Record
20:00 135 ft 1.84 ft 9.1 sec 4.5 sec 0.6 sec 2400 sec
21:00 135 ft 2.07 ft 11.4 sec 4.0 sec 0.6 sec 2400 sec
22:00 135 ft 1.71 ft 11.4 sec 4.2 sec 0.6 sec 2400 sec
23:00 135 ft 1.80 ft 11.4 sec 4.6 sec 0.6 sec 2400 sec
00:00 135 ft 1.84 ft 11.4 sec 4.1 sec 0.6 sec 2400 sec
02:00 135 ft 2.10 ft 11.4 sec 3.9 sec 0.6 sec 2400 sec
03:00 135 ft 2.10 ft 12.1 sec 3.8 sec 0.6 sec 2400 sec
04:00 135 ft 2.03 ft 11.4 sec 4.0 sec 0.6 sec 2400 sec
05:00 135 ft 2.10 ft 10.8 sec 4.3 sec 0.6 sec 2400 sec
06:00 135 ft 2.00 ft 10.8 sec 3.7 sec 0.6 sec 2400 sec
07:00 135 ft 2.33 ft 10.8 sec 4.1 sec 0.6 sec 2400 sec
08:00 135 ft 2.13 ft 10.8 sec 3.9 sec 0.6 sec 2400 sec
09:00 135 ft 2.03 ft 10.8 sec 3.9 sec 0.6 sec 2400 sec
10:00 135 ft 2.07 ft 10.8 sec 3.9 sec 0.6 sec 2400 sec
11:00 135 ft 1.97 ft 4.0 sec 4.1 sec 0.6 sec 2400 sec
12:00 135 ft 1.90 ft 10.8 sec 4.1 sec 0.6 sec 2400 sec
13:00 135 ft 1.94 ft 10.8 sec 4.5 sec 0.6 sec 2400 sec
14:00 135 ft 1.80 ft 10.8 sec 4.4 sec 0.6 sec 2400 sec
16:00 135 ft 1.74 ft 9.1 sec 4.8 sec 0.6 sec 2400 sec
17:00 135 ft 1.71 ft 10.0 sec 4.8 sec 0.6 sec 2400 sec
19:00 135 ft 1.67 ft 10.8 sec 5.1 sec 0.6 sec 2400 sec
20:00 135 ft 1.77 ft 10.8 sec 5.5 sec 0.6 sec 2400 sec